IBE03KE KJFK-LEMD
Flight info
| Callsign | IBE03KE |
|---|---|
| Flight time | 1h 47m |
| Altitude | 37000 |
| Route | YNKEE DCT HTO V268 SEY V34 ACK DCT WHALE DCT HEMMI DCT SUPRY/M083F370 DCT 46N042W DCT H4530 DCT 4520N DCT KOPAS/N0479F370 DCT NEXEP DCT STG N733 ZMR |
| Aircraft | A346/H-SDE2E3FGHIJ3J4J5M1RWXY/LB1D1 |
Departure
| Time | 2026-05-08 07:09 |
|---|---|
| Airport | John F. Kennedy International Airport (KJFK) |
Arrival
| Time | 2026-05-08 08:56 |
|---|---|
| Airport | Adolfo Suárez Madrid–Barajas Airport (LEMD) |
| Time | Latitude | Longitude | Altitude | Speed | Heading |
|---|---|---|---|---|---|
| 2026-05-08 06:20 | 40.64859 | -73.78873 | 32 ft | 0 kts | 245° |
| 2026-05-08 06:50 | 40.64859 | -73.78874 | 32 ft | 2 kts | 245° |
| 2026-05-08 06:51 | 40.64856 | -73.78879 | 32 ft | 0 kts | 245° |
| 2026-05-08 06:51 | 40.64864 | -73.78858 | 30 ft | 4 kts | 234° |
| 2026-05-08 06:51 | 40.64876 | -73.78838 | 30 ft | 4 kts | 247° |
| 2026-05-08 06:51 | 40.64879 | -73.78827 | 30 ft | 4 kts | 295° |
| 2026-05-08 06:52 | 40.64869 | -73.78817 | 30 ft | 3 kts | 335° |
| 2026-05-08 06:52 | 40.64845 | -73.78802 | 29 ft | 4 kts | 335° |
| 2026-05-08 06:52 | 40.64836 | -73.78797 | 30 ft | 0 kts | 335° |
| 2026-05-08 06:57 | 40.64844 | -73.78801 | 32 ft | 3 kts | 335° |
| 2026-05-08 06:57 | 40.64880 | -73.78822 | 11 ft | 8 kts | 339° |
| 2026-05-08 06:58 | 40.64941 | -73.78846 | 32 ft | 10 kts | 346° |
| 2026-05-08 06:58 | 40.65013 | -73.78887 | 32 ft | 12 kts | 324° |
| 2026-05-08 06:58 | 40.65078 | -73.78913 | 32 ft | 10 kts | 358° |
| 2026-05-08 06:58 | 40.65154 | -73.78906 | 32 ft | 12 kts | 5° |
| 2026-05-08 06:59 | 40.65206 | -73.78915 | 32 ft | 8 kts | 318° |
| 2026-05-08 06:59 | 40.65241 | -73.78992 | 32 ft | 11 kts | 292° |
| 2026-05-08 06:59 | 40.65266 | -73.79101 | 32 ft | 14 kts | 286° |
| 2026-05-08 06:59 | 40.65287 | -73.79231 | 32 ft | 15 kts | 274° |
| 2026-05-08 07:00 | 40.65267 | -73.79373 | 32 ft | 17 kts | 245° |
| 2026-05-08 07:00 | 40.65206 | -73.79520 | 32 ft | 19 kts | 240° |
| 2026-05-08 07:00 | 40.65134 | -73.79685 | 32 ft | 22 kts | 237° |
| 2026-05-08 07:00 | 40.65008 | -73.79798 | 32 ft | 23 kts | 191° |
| 2026-05-08 07:01 | 40.64841 | -73.79806 | 32 ft | 24 kts | 179° |
| 2026-05-08 07:01 | 40.64699 | -73.79745 | 32 ft | 22 kts | 144° |
| 2026-05-08 07:01 | 40.64592 | -73.79641 | 32 ft | 20 kts | 146° |
| 2026-05-08 07:01 | 40.64462 | -73.79594 | 32 ft | 15 kts | 174° |
| 2026-05-08 07:02 | 40.64355 | -73.79591 | 33 ft | 16 kts | 185° |
| 2026-05-08 07:02 | 40.64237 | -73.79605 | 33 ft | 18 kts | 185° |
| 2026-05-08 07:02 | 40.64103 | -73.79605 | 32 ft | 21 kts | 168° |
| 2026-05-08 07:02 | 40.63980 | -73.79503 | 31 ft | 20 kts | 124° |
| 2026-05-08 07:03 | 40.63903 | -73.79335 | 29 ft | 23 kts | 120° |
| 2026-05-08 07:03 | 40.63820 | -73.79146 | 31 ft | 24 kts | 121° |
| 2026-05-08 07:03 | 40.63733 | -73.78955 | 32 ft | 23 kts | 121° |
| 2026-05-08 07:03 | 40.63649 | -73.78772 | 35 ft | 24 kts | 121° |
| 2026-05-08 07:04 | 40.63561 | -73.78578 | 36 ft | 25 kts | 121° |
| 2026-05-08 07:04 | 40.63467 | -73.78370 | 33 ft | 28 kts | 121° |
| 2026-05-08 07:04 | 40.63370 | -73.78155 | 33 ft | 27 kts | 120° |
| 2026-05-08 07:04 | 40.63330 | -73.77965 | 33 ft | 16 kts | 81° |
| 2026-05-08 07:05 | 40.63335 | -73.77899 | 34 ft | 6 kts | 97° |
| 2026-05-08 07:05 | 40.63321 | -73.77841 | 35 ft | 7 kts | 113° |
| 2026-05-08 07:05 | 40.63296 | -73.77782 | 36 ft | 9 kts | 121° |
| 2026-05-08 07:05 | 40.63259 | -73.77701 | 35 ft | 12 kts | 120° |
| 2026-05-08 07:06 | 40.63216 | -73.77603 | 37 ft | 13 kts | 120° |
| 2026-05-08 07:06 | 40.63169 | -73.77499 | 38 ft | 14 kts | 120° |
| 2026-05-08 07:06 | 40.63116 | -73.77378 | 36 ft | 17 kts | 121° |
| 2026-05-08 07:06 | 40.63050 | -73.77237 | 35 ft | 19 kts | 121° |
| 2026-05-08 07:07 | 40.62990 | -73.77105 | 32 ft | 10 kts | 130° |
| 2026-05-08 07:07 | 40.62940 | -73.77095 | 32 ft | 8 kts | 198° |
| 2026-05-08 07:07 | 40.62884 | -73.77134 | 32 ft | 10 kts | 211° |
| 2026-05-08 07:07 | 40.62823 | -73.77200 | 32 ft | 10 kts | 254° |
| 2026-05-08 07:08 | 40.62848 | -73.77294 | 33 ft | 12 kts | 303° |
| 2026-05-08 07:08 | 40.62893 | -73.77383 | 34 ft | 13 kts | 302° |
| 2026-05-08 07:08 | 40.63013 | -73.77647 | 38 ft | 63 kts | 300° |
| 2026-05-08 07:08 | 40.63339 | -73.78369 | 31 ft | 119 kts | 301° |
| 2026-05-08 07:09 | 40.63852 | -73.79494 | 28 ft | 166 kts | 302° |
| 2026-05-08 07:09 | 40.64479 | -73.80937 | 212 ft | 190 kts | 302° |
| 2026-05-08 07:09 | 40.65114 | -73.82444 | 860 ft | 188 kts | 296° |
| 2026-05-08 07:09 | 40.65259 | -73.84169 | 1507 ft | 196 kts | 260° |
| 2026-05-08 07:10 | 40.64565 | -73.85737 | 2131 ft | 206 kts | 230° |
| 2026-05-08 07:10 | 40.63458 | -73.87047 | 2535 ft | 222 kts | 223° |
| 2026-05-08 07:10 | 40.62234 | -73.88408 | 2839 ft | 239 kts | 221° |
| 2026-05-08 07:10 | 40.60697 | -73.89446 | 3143 ft | 262 kts | 193° |
| 2026-05-08 07:11 | 40.58864 | -73.89389 | 3663 ft | 272 kts | 170° |
| 2026-05-08 07:11 | 40.57011 | -73.88880 | 4496 ft | 270 kts | 169° |
| 2026-05-08 07:11 | 40.55187 | -73.88283 | 5333 ft | 271 kts | 166° |
| 2026-05-08 07:11 | 40.53392 | -73.87481 | 6089 ft | 274 kts | 162° |
| 2026-05-08 07:12 | 40.51595 | -73.86572 | 6797 ft | 278 kts | 162° |
| 2026-05-08 07:12 | 40.49778 | -73.85649 | 7488 ft | 282 kts | 162° |
| 2026-05-08 07:12 | 40.47939 | -73.84714 | 8189 ft | 286 kts | 161° |
| 2026-05-08 07:12 | 40.46176 | -73.83434 | 8857 ft | 298 kts | 140° |
| 2026-05-08 07:13 | 40.45037 | -73.81122 | 9546 ft | 309 kts | 107° |
| 2026-05-08 07:13 | 40.44932 | -73.78305 | 10212 ft | 314 kts | 74° |
| 2026-05-08 07:13 | 40.45712 | -73.75588 | 10727 ft | 324 kts | 62° |
| 2026-05-08 07:13 | 40.46716 | -73.72849 | 11094 ft | 341 kts | 61° |
| 2026-05-08 07:14 | 40.47772 | -73.69969 | 11433 ft | 359 kts | 62° |
| 2026-05-08 07:14 | 40.48852 | -73.66906 | 11768 ft | 377 kts | 63° |
| 2026-05-08 07:14 | 40.49947 | -73.63687 | 12065 ft | 395 kts | 64° |
| 2026-05-08 07:14 | 40.51053 | -73.60354 | 12497 ft | 408 kts | 64° |
| 2026-05-08 07:15 | 40.52187 | -73.56899 | 13192 ft | 413 kts | 64° |
| 2026-05-08 07:15 | 40.53325 | -73.53404 | 13937 ft | 417 kts | 64° |
| 2026-05-08 07:15 | 40.54473 | -73.49870 | 14540 ft | 423 kts | 64° |
| 2026-05-08 07:15 | 40.55638 | -73.46274 | 15094 ft | 431 kts | 64° |
| 2026-05-08 07:16 | 40.56824 | -73.42605 | 15627 ft | 439 kts | 64° |
| 2026-05-08 07:16 | 40.58028 | -73.38874 | 16224 ft | 445 kts | 64° |
| 2026-05-08 07:16 | 40.59243 | -73.35100 | 16823 ft | 450 kts | 64° |
| 2026-05-08 07:16 | 40.60477 | -73.31265 | 17371 ft | 457 kts | 64° |
| 2026-05-08 07:17 | 40.61730 | -73.27376 | 17846 ft | 466 kts | 65° |
| 2026-05-08 07:17 | 40.63011 | -73.23389 | 18261 ft | 475 kts | 65° |
| 2026-05-08 07:17 | 40.64306 | -73.19333 | 18688 ft | 482 kts | 66° |
| 2026-05-08 07:17 | 40.65613 | -73.15233 | 19173 ft | 488 kts | 66° |
| 2026-05-08 07:18 | 40.66937 | -73.11077 | 19607 ft | 493 kts | 66° |
| 2026-05-08 07:18 | 40.68276 | -73.06872 | 20096 ft | 499 kts | 66° |
| 2026-05-08 07:18 | 40.69611 | -73.02677 | 20550 ft | 505 kts | 66° |
| 2026-05-08 07:18 | 40.70975 | -72.98388 | 21020 ft | 511 kts | 66° |
| 2026-05-08 07:19 | 40.72352 | -72.94049 | 21527 ft | 516 kts | 66° |
| 2026-05-08 07:19 | 40.73753 | -72.89645 | 21997 ft | 521 kts | 67° |
| 2026-05-08 07:19 | 40.75159 | -72.85204 | 22426 ft | 527 kts | 67° |
| 2026-05-08 07:19 | 40.76579 | -72.80702 | 22866 ft | 533 kts | 67° |
| 2026-05-08 07:20 | 40.78010 | -72.76159 | 23319 ft | 538 kts | 67° |
| 2026-05-08 07:20 | 40.79453 | -72.71570 | 23721 ft | 543 kts | 67° |
| 2026-05-08 07:20 | 40.80906 | -72.66938 | 24111 ft | 548 kts | 67° |
| 2026-05-08 07:20 | 40.82368 | -72.62274 | 24523 ft | 551 kts | 67° |
| 2026-05-08 07:21 | 40.83840 | -72.57572 | 24913 ft | 554 kts | 67° |
| 2026-05-08 07:21 | 40.85320 | -72.52843 | 25358 ft | 557 kts | 67° |
| 2026-05-08 07:21 | 40.86803 | -72.48097 | 25816 ft | 560 kts | 67° |
| 2026-05-08 07:21 | 40.88294 | -72.43310 | 26210 ft | 564 kts | 67° |
| 2026-05-08 07:22 | 40.89790 | -72.38492 | 26573 ft | 567 kts | 66° |
| 2026-05-08 07:22 | 40.91275 | -72.33702 | 26977 ft | 570 kts | 66° |
| 2026-05-08 07:22 | 40.92812 | -72.28838 | 27359 ft | 573 kts | 65° |
| 2026-05-08 07:22 | 40.94437 | -72.23994 | 27702 ft | 577 kts | 64° |
| 2026-05-08 07:23 | 40.96105 | -72.19143 | 28096 ft | 579 kts | 64° |
| 2026-05-08 07:23 | 40.97775 | -72.14288 | 28628 ft | 579 kts | 64° |
| 2026-05-08 07:23 | 40.99435 | -72.09422 | 29284 ft | 577 kts | 64° |
| 2026-05-08 07:23 | 41.01071 | -72.04587 | 29906 ft | 575 kts | 64° |
| 2026-05-08 07:24 | 41.02699 | -71.99751 | 30376 ft | 574 kts | 64° |
| 2026-05-08 07:24 | 41.04326 | -71.94908 | 30835 ft | 574 kts | 64° |
| 2026-05-08 07:24 | 41.05925 | -71.90137 | 31276 ft | 573 kts | 64° |
| 2026-05-08 07:24 | 41.07543 | -71.85309 | 31758 ft | 571 kts | 64° |
| 2026-05-08 07:25 | 41.09153 | -71.80489 | 32251 ft | 570 kts | 64° |
| 2026-05-08 07:25 | 41.10756 | -71.75677 | 32724 ft | 569 kts | 65° |
| 2026-05-08 07:25 | 41.13914 | -71.66052 | 33703 ft | 567 kts | 68° |
| 2026-05-08 07:26 | 41.15272 | -71.61147 | 34121 ft | 565 kts | 72° |
| 2026-05-08 07:26 | 41.16376 | -71.56135 | 34469 ft | 564 kts | 77° |
| 2026-05-08 07:26 | 41.17212 | -71.51047 | 34791 ft | 562 kts | 82° |
| 2026-05-08 07:26 | 41.17780 | -71.45924 | 35134 ft | 560 kts | 86° |
| 2026-05-08 07:27 | 41.18183 | -71.40774 | 35423 ft | 560 kts | 87° |
| 2026-05-08 07:27 | 41.18426 | -71.37351 | 35564 ft | 561 kts | 87° |
| 2026-05-08 07:27 | 41.18916 | -71.30429 | 35840 ft | 564 kts | 87° |
| 2026-05-08 07:27 | 41.19169 | -71.26989 | 35984 ft | 565 kts | 87° |
| 2026-05-08 07:28 | 41.19564 | -71.21778 | 36210 ft | 566 kts | 86° |
| 2026-05-08 07:28 | 41.20100 | -71.14873 | 36517 ft | 568 kts | 86° |
| 2026-05-08 07:28 | 41.20508 | -71.09632 | 36738 ft | 569 kts | 86° |
| 2026-05-08 07:28 | 41.20781 | -71.06090 | 36849 ft | 570 kts | 86° |
| 2026-05-08 07:29 | 41.21183 | -71.00841 | 36861 ft | 571 kts | 86° |
| 2026-05-08 07:29 | 41.24083 | -70.61727 | 36861 ft | 566 kts | 87° |
| 2026-05-08 07:30 | 41.30722 | -69.94542 | 36853 ft | 567 kts | 71° |
| 2026-05-08 07:30 | 41.50468 | -69.32161 | 36847 ft | 565 kts | 68° |
| 2026-05-08 07:31 | 41.69996 | -68.68834 | 36833 ft | 564 kts | 70° |
| 2026-05-08 07:31 | 41.89040 | -68.05564 | 36839 ft | 563 kts | 71° |
| 2026-05-08 07:32 | 42.07719 | -67.41975 | 36802 ft | 562 kts | 72° |
| 2026-05-08 07:32 | 42.26321 | -66.79022 | 36778 ft | 561 kts | 70° |
| 2026-05-08 07:33 | 42.45813 | -66.15643 | 36778 ft | 557 kts | 71° |
| 2026-05-08 07:33 | 42.64632 | -65.52889 | 36746 ft | 552 kts | 72° |
| 2026-05-08 07:34 | 42.83026 | -64.90033 | 36733 ft | 547 kts | 73° |
| 2026-05-08 07:34 | 43.00882 | -64.27488 | 36717 ft | 544 kts | 74° |
| 2026-05-08 07:35 | 43.18203 | -63.65279 | 36713 ft | 544 kts | 75° |
| 2026-05-08 07:35 | 43.35231 | -63.02552 | 36649 ft | 544 kts | 76° |
| 2026-05-08 07:36 | 43.52006 | -62.39123 | 36695 ft | 545 kts | 77° |
| 2026-05-08 07:36 | 43.68518 | -61.74967 | 36685 ft | 548 kts | 77° |
| 2026-05-08 07:37 | 43.84797 | -61.09963 | 36685 ft | 550 kts | 77° |
| 2026-05-08 07:37 | 44.00533 | -60.45338 | 36683 ft | 549 kts | 77° |
| 2026-05-08 07:38 | 44.16028 | -59.79820 | 36682 ft | 548 kts | 76° |
| 2026-05-08 07:38 | 44.31254 | -59.13492 | 36679 ft | 549 kts | 76° |
| 2026-05-08 07:39 | 44.46025 | -58.47147 | 36683 ft | 549 kts | 76° |
| 2026-05-08 07:39 | 44.60208 | -57.81397 | 36699 ft | 545 kts | 76° |
| 2026-05-08 07:40 | 44.74081 | -57.14993 | 36705 ft | 542 kts | 76° |
| 2026-05-08 07:40 | 44.87454 | -56.48861 | 36731 ft | 540 kts | 76° |
| 2026-05-08 07:41 | 45.00616 | -55.81526 | 36752 ft | 536 kts | 76° |
| 2026-05-08 07:41 | 45.11405 | -55.14487 | 36778 ft | 533 kts | 81° |
| 2026-05-08 07:42 | 45.20384 | -54.47588 | 36783 ft | 532 kts | 82° |
| 2026-05-08 07:42 | 45.28952 | -53.80634 | 36819 ft | 533 kts | 82° |
| 2026-05-08 07:43 | 45.37072 | -53.13987 | 36852 ft | 528 kts | 82° |
| 2026-05-08 07:43 | 45.44800 | -52.47160 | 36889 ft | 528 kts | 82° |
| 2026-05-08 07:44 | 45.51914 | -51.79762 | 36927 ft | 526 kts | 82° |
| 2026-05-08 07:44 | 45.57918 | -51.12525 | 36964 ft | 527 kts | 82° |
| 2026-05-08 07:45 | 45.63626 | -50.44195 | 37020 ft | 526 kts | 82° |
| 2026-05-08 07:45 | 45.68977 | -49.74959 | 37059 ft | 528 kts | 82° |
| 2026-05-08 07:46 | 45.73877 | -49.06168 | 37098 ft | 526 kts | 82° |
| 2026-05-08 07:46 | 45.78347 | -48.37455 | 37141 ft | 524 kts | 81° |
| 2026-05-08 07:47 | 45.82392 | -47.68684 | 37182 ft | 515 kts | 80° |
| 2026-05-08 07:47 | 45.85963 | -47.01282 | 37211 ft | 507 kts | 79° |
| 2026-05-08 07:48 | 45.89107 | -46.34521 | 37230 ft | 501 kts | 79° |
| 2026-05-08 07:48 | 45.91829 | -45.68490 | 37269 ft | 500 kts | 79° |
| 2026-05-08 07:49 | 45.94176 | -45.02165 | 37289 ft | 495 kts | 79° |
| 2026-05-08 07:49 | 45.96100 | -44.37311 | 37310 ft | 488 kts | 79° |
| 2026-05-08 07:50 | 45.97650 | -43.72648 | 37317 ft | 484 kts | 80° |
| 2026-05-08 07:50 | 45.98837 | -43.07964 | 37336 ft | 484 kts | 83° |
| 2026-05-08 07:51 | 45.99664 | -42.43026 | 37333 ft | 490 kts | 85° |
| 2026-05-08 07:51 | 46.00223 | -41.77382 | 37359 ft | 489 kts | 86° |
| 2026-05-08 07:52 | 46.00623 | -41.12872 | 37356 ft | 486 kts | 87° |
| 2026-05-08 07:52 | 46.00656 | -40.48459 | 37355 ft | 482 kts | 88° |
| 2026-05-08 07:53 | 46.00329 | -39.84600 | 37356 ft | 481 kts | 88° |
| 2026-05-08 07:53 | 45.99656 | -39.21259 | 37353 ft | 481 kts | 89° |
| 2026-05-08 07:54 | 45.98608 | -38.56621 | 37356 ft | 480 kts | 89° |
| 2026-05-08 07:54 | 45.97196 | -37.92058 | 37354 ft | 482 kts | 90° |
| 2026-05-08 07:55 | 45.95429 | -37.27893 | 37355 ft | 485 kts | 89° |
| 2026-05-08 07:55 | 45.93248 | -36.62092 | 37337 ft | 488 kts | 89° |
| 2026-05-08 07:56 | 45.90713 | -35.96928 | 37330 ft | 489 kts | 89° |
| 2026-05-08 07:56 | 45.87794 | -35.31548 | 37318 ft | 491 kts | 89° |
| 2026-05-08 07:57 | 45.84481 | -34.65922 | 37318 ft | 494 kts | 88° |
| 2026-05-08 07:57 | 45.80737 | -33.99318 | 37299 ft | 496 kts | 88° |
| 2026-05-08 07:58 | 45.76624 | -33.33087 | 37301 ft | 497 kts | 88° |
| 2026-05-08 07:58 | 45.72099 | -32.66597 | 37318 ft | 497 kts | 88° |
| 2026-05-08 07:59 | 45.67153 | -31.99728 | 37269 ft | 500 kts | 87° |
| 2026-05-08 07:59 | 45.61864 | -31.33517 | 37240 ft | 502 kts | 88° |
| 2026-05-08 08:00 | 45.56165 | -30.67125 | 37225 ft | 504 kts | 88° |
| 2026-05-08 08:00 | 45.50113 | -30.00148 | 37206 ft | 502 kts | 85° |
| 2026-05-08 08:01 | 45.49400 | -29.34011 | 37180 ft | 498 kts | 82° |
| 2026-05-08 08:01 | 45.48420 | -28.67443 | 37155 ft | 500 kts | 83° |
| 2026-05-08 08:02 | 45.47022 | -27.99524 | 37137 ft | 501 kts | 84° |
| 2026-05-08 08:02 | 45.45233 | -27.32036 | 37120 ft | 503 kts | 85° |
| 2026-05-08 08:03 | 45.43050 | -26.64801 | 37084 ft | 506 kts | 85° |
| 2026-05-08 08:03 | 45.40447 | -25.96886 | 37053 ft | 505 kts | 86° |
| 2026-05-08 08:04 | 45.37450 | -25.29313 | 37019 ft | 503 kts | 87° |
| 2026-05-08 08:04 | 45.34083 | -24.62170 | 36994 ft | 504 kts | 89° |
| 2026-05-08 08:05 | 45.30378 | -23.96260 | 36964 ft | 504 kts | 90° |
| 2026-05-08 08:05 | 45.26234 | -23.29323 | 36942 ft | 504 kts | 92° |
| 2026-05-08 08:06 | 45.21704 | -22.62699 | 36927 ft | 504 kts | 93° |
| 2026-05-08 08:06 | 45.16788 | -21.96078 | 36915 ft | 502 kts | 94° |
| 2026-05-08 08:07 | 45.11518 | -21.30062 | 36905 ft | 499 kts | 95° |
| 2026-05-08 08:07 | 45.05876 | -20.64176 | 36896 ft | 495 kts | 96° |
| 2026-05-08 08:08 | 44.99926 | -19.99226 | 36892 ft | 494 kts | 97° |
| 2026-05-08 08:08 | 44.92527 | -19.34010 | 36886 ft | 492 kts | 99° |
| 2026-05-08 08:09 | 44.84917 | -18.70164 | 36859 ft | 488 kts | 100° |
| 2026-05-08 08:09 | 44.77017 | -18.06992 | 36869 ft | 483 kts | 101° |
| 2026-05-08 08:10 | 44.68841 | -17.44538 | 36863 ft | 478 kts | 102° |
| 2026-05-08 08:10 | 44.60293 | -16.82021 | 36864 ft | 478 kts | 102° |
| 2026-05-08 08:11 | 44.51455 | -16.20021 | 36855 ft | 476 kts | 103° |
| 2026-05-08 08:11 | 44.42304 | -15.58379 | 36863 ft | 474 kts | 104° |
| 2026-05-08 08:12 | 44.32864 | -14.97165 | 36857 ft | 472 kts | 104° |
| 2026-05-08 08:12 | 44.23211 | -14.36882 | 36864 ft | 470 kts | 105° |
| 2026-05-08 08:13 | 44.13395 | -13.77673 | 36860 ft | 467 kts | 106° |
| 2026-05-08 08:13 | 44.03455 | -13.19704 | 36867 ft | 464 kts | 107° |
| 2026-05-08 08:14 | 43.92495 | -12.64699 | 36870 ft | 461 kts | 110° |
| 2026-05-08 08:14 | 43.79932 | -12.06894 | 36870 ft | 461 kts | 110° |
| 2026-05-08 08:15 | 43.67248 | -11.50073 | 36876 ft | 460 kts | 111° |
| 2026-05-08 08:15 | 43.54520 | -10.94510 | 36872 ft | 459 kts | 111° |
| 2026-05-08 08:16 | 43.43647 | -10.48130 | 36871 ft | 459 kts | 111° |
| 2026-05-08 08:16 | 43.30404 | -9.92900 | 36878 ft | 460 kts | 112° |
| 2026-05-08 08:17 | 43.16800 | -9.37532 | 36867 ft | 461 kts | 112° |
| 2026-05-08 08:17 | 43.03200 | -8.83504 | 36872 ft | 462 kts | 113° |
| 2026-05-08 08:18 | 42.87350 | -8.31379 | 36876 ft | 457 kts | 127° |
| 2026-05-08 08:18 | 42.64270 | -7.83724 | 36897 ft | 456 kts | 127° |
| 2026-05-08 08:19 | 42.41097 | -7.36590 | 36902 ft | 458 kts | 127° |
| 2026-05-08 08:19 | 42.25368 | -7.05030 | 36903 ft | 457 kts | 128° |
| 2026-05-08 08:20 | 42.18217 | -6.90789 | 36906 ft | 457 kts | 128° |
| 2026-05-08 08:20 | 42.11047 | -6.76588 | 36903 ft | 458 kts | 128° |
| 2026-05-08 08:21 | 42.03836 | -6.62363 | 36912 ft | 458 kts | 128° |
| 2026-05-08 08:21 | 41.99914 | -6.54653 | 36920 ft | 458 kts | 128° |
| 2026-05-08 08:22 | 41.96331 | -6.47628 | 36915 ft | 458 kts | 128° |
| 2026-05-08 08:22 | 41.92720 | -6.40563 | 36915 ft | 458 kts | 128° |
| 2026-05-08 08:23 | 41.89090 | -6.33479 | 36917 ft | 458 kts | 128° |
| 2026-05-08 08:23 | 41.85469 | -6.26426 | 36917 ft | 458 kts | 128° |
| 2026-05-08 08:24 | 41.81844 | -6.19388 | 36918 ft | 458 kts | 128° |
| 2026-05-08 08:24 | 41.78216 | -6.12365 | 36926 ft | 457 kts | 128° |
| 2026-05-08 08:25 | 41.74583 | -6.05340 | 36901 ft | 457 kts | 129° |
| 2026-05-08 08:25 | 41.70983 | -5.98397 | 36908 ft | 457 kts | 129° |
| 2026-05-08 08:26 | 41.67347 | -5.91400 | 36924 ft | 457 kts | 129° |
| 2026-05-08 08:26 | 41.63707 | -5.84410 | 36925 ft | 457 kts | 129° |
| 2026-05-08 08:27 | 41.60069 | -5.77434 | 36927 ft | 456 kts | 129° |
| 2026-05-08 08:27 | 41.56422 | -5.70477 | 36899 ft | 456 kts | 130° |
| 2026-05-08 08:28 | 41.52494 | -5.63933 | 36912 ft | 452 kts | 135° |
| 2026-05-08 08:28 | 41.48097 | -5.57966 | 36919 ft | 449 kts | 141° |
| 2026-05-08 08:29 | 41.43480 | -5.52323 | 36922 ft | 450 kts | 141° |
| 2026-05-08 08:29 | 41.38860 | -5.46677 | 36901 ft | 451 kts | 141° |
| 2026-05-08 08:29 | 41.36538 | -5.43845 | 36544 ft | 450 kts | 140° |
| 2026-05-08 08:30 | 41.34233 | -5.41039 | 36058 ft | 447 kts | 140° |
| 2026-05-08 08:30 | 41.31972 | -5.38293 | 35481 ft | 445 kts | 140° |
| 2026-05-08 08:30 | 41.27409 | -5.32757 | 34283 ft | 441 kts | 139° |
| 2026-05-08 08:31 | 41.25147 | -5.30013 | 33719 ft | 439 kts | 138° |
| 2026-05-08 08:31 | 41.22893 | -5.27278 | 33086 ft | 437 kts | 138° |
| 2026-05-08 08:31 | 41.20659 | -5.24560 | 32476 ft | 435 kts | 139° |
| 2026-05-08 08:31 | 41.18421 | -5.21847 | 31761 ft | 435 kts | 139° |
| 2026-05-08 08:32 | 41.16173 | -5.19129 | 31074 ft | 436 kts | 139° |
| 2026-05-08 08:32 | 41.13925 | -5.16417 | 30411 ft | 436 kts | 138° |
| 2026-05-08 08:32 | 41.11682 | -5.13711 | 29729 ft | 436 kts | 138° |
| 2026-05-08 08:32 | 41.09441 | -5.11008 | 29015 ft | 435 kts | 139° |
| 2026-05-08 08:33 | 41.07193 | -5.08298 | 28268 ft | 435 kts | 139° |
| 2026-05-08 08:33 | 41.04956 | -5.05603 | 27608 ft | 433 kts | 139° |
| 2026-05-08 08:33 | 41.02768 | -5.02971 | 27134 ft | 428 kts | 139° |
| 2026-05-08 08:33 | 41.00567 | -5.00327 | 26592 ft | 425 kts | 139° |
| 2026-05-08 08:34 | 40.98391 | -4.97715 | 26070 ft | 422 kts | 139° |
| 2026-05-08 08:34 | 40.96224 | -4.95118 | 25541 ft | 418 kts | 140° |
| 2026-05-08 08:34 | 40.94066 | -4.92529 | 25094 ft | 415 kts | 140° |
| 2026-05-08 08:34 | 40.91933 | -4.89977 | 24638 ft | 411 kts | 140° |
| 2026-05-08 08:35 | 40.89816 | -4.87449 | 24192 ft | 408 kts | 140° |
| 2026-05-08 08:35 | 40.87709 | -4.84936 | 23739 ft | 406 kts | 140° |
| 2026-05-08 08:35 | 40.85618 | -4.82442 | 23221 ft | 404 kts | 141° |
| 2026-05-08 08:35 | 40.83540 | -4.79967 | 22726 ft | 400 kts | 141° |
| 2026-05-08 08:36 | 40.81481 | -4.77517 | 22275 ft | 396 kts | 140° |
| 2026-05-08 08:36 | 40.79436 | -4.75085 | 21823 ft | 393 kts | 141° |
| 2026-05-08 08:36 | 40.77416 | -4.72683 | 21391 ft | 389 kts | 140° |
| 2026-05-08 08:36 | 40.75413 | -4.70304 | 20965 ft | 385 kts | 140° |
| 2026-05-08 08:37 | 40.73453 | -4.67977 | 20540 ft | 382 kts | 140° |
| 2026-05-08 08:37 | 40.71481 | -4.65638 | 20108 ft | 379 kts | 140° |
| 2026-05-08 08:37 | 40.69522 | -4.63316 | 19670 ft | 378 kts | 140° |
| 2026-05-08 08:37 | 40.67558 | -4.60992 | 19231 ft | 376 kts | 140° |
| 2026-05-08 08:38 | 40.65613 | -4.58691 | 18801 ft | 375 kts | 140° |
| 2026-05-08 08:38 | 40.63678 | -4.56393 | 18357 ft | 374 kts | 140° |
| 2026-05-08 08:38 | 40.61811 | -4.53987 | 17869 ft | 374 kts | 137° |
| 2026-05-08 08:38 | 40.60044 | -4.51484 | 17410 ft | 372 kts | 135° |
| 2026-05-08 08:39 | 40.58298 | -4.48976 | 16978 ft | 370 kts | 135° |
| 2026-05-08 08:39 | 40.56563 | -4.46481 | 16552 ft | 368 kts | 135° |
| 2026-05-08 08:39 | 40.54841 | -4.44004 | 16130 ft | 366 kts | 135° |
| 2026-05-08 08:39 | 40.53122 | -4.41537 | 15696 ft | 364 kts | 135° |
| 2026-05-08 08:40 | 40.51420 | -4.39094 | 15271 ft | 362 kts | 135° |
| 2026-05-08 08:40 | 40.49762 | -4.36715 | 15109 ft | 350 kts | 135° |
| 2026-05-08 08:40 | 40.48145 | -4.34393 | 14983 ft | 338 kts | 136° |
| 2026-05-08 08:40 | 40.46588 | -4.32160 | 14859 ft | 326 kts | 136° |
| 2026-05-08 08:41 | 40.45084 | -4.30006 | 14734 ft | 314 kts | 136° |
| 2026-05-08 08:41 | 40.43631 | -4.27927 | 14625 ft | 303 kts | 136° |
| 2026-05-08 08:41 | 40.42235 | -4.25930 | 14516 ft | 291 kts | 136° |
| 2026-05-08 08:41 | 40.40890 | -4.24010 | 14421 ft | 280 kts | 136° |
| 2026-05-08 08:42 | 40.39597 | -4.22165 | 14335 ft | 269 kts | 136° |
| 2026-05-08 08:42 | 40.38358 | -4.20393 | 14246 ft | 257 kts | 137° |
| 2026-05-08 08:42 | 40.37167 | -4.18695 | 14164 ft | 249 kts | 137° |
| 2026-05-08 08:42 | 40.35998 | -4.17035 | 14094 ft | 247 kts | 137° |
| 2026-05-08 08:43 | 40.34869 | -4.15343 | 13998 ft | 248 kts | 130° |
| 2026-05-08 08:43 | 40.33999 | -4.13339 | 13959 ft | 263 kts | 117° |
| 2026-05-08 08:43 | 40.33340 | -4.10967 | 13951 ft | 285 kts | 114° |
| 2026-05-08 08:43 | 40.32715 | -4.08466 | 13595 ft | 289 kts | 113° |
| 2026-05-08 08:44 | 40.32103 | -4.05959 | 13239 ft | 287 kts | 113° |
| 2026-05-08 08:44 | 40.31495 | -4.03482 | 12902 ft | 284 kts | 113° |
| 2026-05-08 08:44 | 40.30886 | -4.01023 | 12613 ft | 282 kts | 113° |
| 2026-05-08 08:44 | 40.30279 | -3.98586 | 12313 ft | 281 kts | 113° |
| 2026-05-08 08:45 | 40.29680 | -3.96197 | 12023 ft | 279 kts | 113° |
| 2026-05-08 08:45 | 40.29075 | -3.93788 | 11719 ft | 277 kts | 114° |
| 2026-05-08 08:45 | 40.28471 | -3.91392 | 11427 ft | 275 kts | 114° |
| 2026-05-08 08:45 | 40.27872 | -3.89014 | 11140 ft | 274 kts | 114° |
| 2026-05-08 08:46 | 40.27276 | -3.86651 | 10852 ft | 272 kts | 114° |
| 2026-05-08 08:46 | 40.26683 | -3.84301 | 10560 ft | 271 kts | 114° |
| 2026-05-08 08:46 | 40.26092 | -3.81966 | 10254 ft | 269 kts | 114° |
| 2026-05-08 08:46 | 40.25501 | -3.79646 | 9964 ft | 268 kts | 113° |
| 2026-05-08 08:47 | 40.24915 | -3.77332 | 9669 ft | 267 kts | 113° |
| 2026-05-08 08:47 | 40.24332 | -3.75032 | 9360 ft | 266 kts | 113° |
| 2026-05-08 08:47 | 40.23748 | -3.72730 | 9074 ft | 265 kts | 113° |
| 2026-05-08 08:47 | 40.23165 | -3.70435 | 8773 ft | 264 kts | 112° |
| 2026-05-08 08:48 | 40.22584 | -3.68152 | 8469 ft | 264 kts | 112° |
| 2026-05-08 08:48 | 40.22005 | -3.65876 | 8170 ft | 263 kts | 112° |
| 2026-05-08 08:48 | 40.21599 | -3.63540 | 7832 ft | 268 kts | 93° |
| 2026-05-08 08:48 | 40.21845 | -3.61151 | 7588 ft | 267 kts | 82° |
| 2026-05-08 08:49 | 40.22259 | -3.58784 | 7346 ft | 263 kts | 81° |
| 2026-05-08 08:49 | 40.22661 | -3.56472 | 7073 ft | 260 kts | 82° |
| 2026-05-08 08:49 | 40.23027 | -3.54165 | 6777 ft | 258 kts | 82° |
| 2026-05-08 08:49 | 40.23366 | -3.51863 | 6473 ft | 257 kts | 83° |
| 2026-05-08 08:50 | 40.23686 | -3.49565 | 6145 ft | 255 kts | 83° |
| 2026-05-08 08:50 | 40.23996 | -3.47279 | 5839 ft | 254 kts | 83° |
| 2026-05-08 08:50 | 40.24304 | -3.44993 | 5527 ft | 253 kts | 83° |
| 2026-05-08 08:50 | 40.24609 | -3.42723 | 5201 ft | 253 kts | 82° |
| 2026-05-08 08:51 | 40.24913 | -3.40472 | 4990 ft | 247 kts | 82° |
| 2026-05-08 08:51 | 40.25499 | -3.38411 | 4941 ft | 241 kts | 54° |
| 2026-05-08 08:51 | 40.26798 | -3.37052 | 4959 ft | 242 kts | 21° |
| 2026-05-08 08:51 | 40.28430 | -3.36776 | 4961 ft | 242 kts | 348° |
| 2026-05-08 08:52 | 40.29924 | -3.37644 | 4943 ft | 232 kts | 314° |
| 2026-05-08 08:52 | 40.30981 | -3.39206 | 4988 ft | 228 kts | 307° |
| 2026-05-08 08:52 | 40.32054 | -3.40744 | 4977 ft | 229 kts | 314° |
| 2026-05-08 08:52 | 40.33235 | -3.42089 | 4999 ft | 216 kts | 319° |
| 2026-05-08 08:53 | 40.34417 | -3.43281 | 4894 ft | 207 kts | 321° |
| 2026-05-08 08:53 | 40.35558 | -3.44413 | 4644 ft | 202 kts | 320° |
| 2026-05-08 08:53 | 40.36651 | -3.45514 | 4362 ft | 195 kts | 319° |
| 2026-05-08 08:53 | 40.37686 | -3.46573 | 4102 ft | 187 kts | 319° |
| 2026-05-08 08:54 | 40.38688 | -3.47599 | 3843 ft | 178 kts | 319° |
| 2026-05-08 08:54 | 40.39656 | -3.48597 | 3608 ft | 177 kts | 321° |
| 2026-05-08 08:54 | 40.40611 | -3.49573 | 3399 ft | 168 kts | 321° |
| 2026-05-08 08:54 | 40.41511 | -3.50494 | 3158 ft | 162 kts | 322° |
| 2026-05-08 08:55 | 40.42404 | -3.51406 | 2934 ft | 162 kts | 322° |
| 2026-05-08 08:55 | 40.43273 | -3.52293 | 2737 ft | 156 kts | 323° |
| 2026-05-08 08:55 | 40.44129 | -3.53165 | 2506 ft | 154 kts | 323° |
| 2026-05-08 08:55 | 40.44984 | -3.54040 | 2316 ft | 153 kts | 323° |
| 2026-05-08 08:56 | 40.45816 | -3.54889 | 2112 ft | 153 kts | 324° |
| 2026-05-08 08:56 | 40.46650 | -3.55732 | 1978 ft | 146 kts | 323° |
| 2026-05-08 08:56 | 40.47322 | -3.56414 | 1998 ft | 95 kts | 322° |
| 2026-05-08 08:56 | 40.47704 | -3.56801 | 2001 ft | 44 kts | 322° |
| 2026-05-08 08:57 | 40.47914 | -3.57008 | 2003 ft | 36 kts | 327° |
| 2026-05-08 08:57 | 40.48126 | -3.57141 | 2013 ft | 32 kts | 341° |
| 2026-05-08 08:57 | 40.48292 | -3.57198 | 2009 ft | 17 kts | 349° |
| 2026-05-08 08:57 | 40.48389 | -3.57218 | 2007 ft | 13 kts | 354° |
| 2026-05-08 08:58 | 40.48467 | -3.57225 | 2005 ft | 9 kts | 360° |
| 2026-05-08 08:58 | 40.48505 | -3.57225 | 2005 ft | 0 kts | 360° |
| 2026-05-08 08:58 | 40.48520 | -3.57225 | 2005 ft | 8 kts | 360° |
| 2026-05-08 08:58 | 40.48609 | -3.57225 | 2002 ft | 15 kts | 0° |
| 2026-05-08 08:59 | 40.48741 | -3.57225 | 1993 ft | 24 kts | 359° |
| 2026-05-08 08:59 | 40.48880 | -3.57227 | 1994 ft | 17 kts | 360° |
| 2026-05-08 08:59 | 40.49009 | -3.57228 | 1991 ft | 20 kts | 360° |
| 2026-05-08 08:59 | 40.49156 | -3.57229 | 1994 ft | 22 kts | 359° |
| 2026-05-08 09:00 | 40.49312 | -3.57231 | 1990 ft | 24 kts | 359° |
| 2026-05-08 09:00 | 40.49479 | -3.57232 | 1990 ft | 24 kts | 359° |
| 2026-05-08 09:00 | 40.49637 | -3.57234 | 1993 ft | 23 kts | 359° |
| 2026-05-08 09:00 | 40.49791 | -3.57234 | 1995 ft | 22 kts | 360° |
| 2026-05-08 09:01 | 40.49942 | -3.57235 | 1994 ft | 22 kts | 360° |
| 2026-05-08 09:01 | 40.50051 | -3.57235 | 1989 ft | 15 kts | 0° |
| 2026-05-08 09:01 | 40.50113 | -3.57153 | 1982 ft | 15 kts | 91° |
| 2026-05-08 09:01 | 40.50104 | -3.57041 | 1984 ft | 11 kts | 117° |
| 2026-05-08 09:02 | 40.50060 | -3.57009 | 1986 ft | 6 kts | 152° |
| 2026-05-08 09:02 | 40.50025 | -3.56955 | 1987 ft | 11 kts | 124° |
| 2026-05-08 09:02 | 40.49965 | -3.56893 | 1987 ft | 8 kts | 154° |
| 2026-05-08 09:02 | 40.49942 | -3.56880 | 1983 ft | 4 kts | 156° |
| 2026-05-08 09:03 | 40.49927 | -3.56871 | 1983 ft | 1 kts | 156° |
| 2026-05-08 09:03 | 40.49924 | -3.56870 | 1982 ft | 0 kts | 156° |
| 2026-05-08 09:03 | 40.49924 | -3.56869 | 1982 ft | 0 kts | 156° |
| 2026-05-08 09:03 | 40.49923 | -3.56869 | 1982 ft | 0 kts | 156° |